sensor_id;sensor_type;location;lat;lon;timestamp;P1;durP1;ratioP1;P2;durP2;ratioP2
26391;SDS011;14572;43.120;1.178;2023-04-05T00:01:37;3.75;;;2.10;;
26391;SDS011;14572;43.120;1.178;2023-04-05T00:04:06;2.58;;;1.83;;
26391;SDS011;14572;43.120;1.178;2023-04-05T00:06:33;5.53;;;2.45;;
26391;SDS011;14572;43.120;1.178;2023-04-05T00:09:02;3.28;;;2.83;;
26391;SDS011;14572;43.120;1.178;2023-04-05T00:11:30;6.78;;;2.22;;
26391;SDS011;14572;43.120;1.178;2023-04-05T00:13:59;3.13;;;2.53;;
26391;SDS011;14572;43.120;1.178;2023-04-05T00:16:26;9.48;;;3.53;;
26391;SDS011;14572;43.120;1.178;2023-04-05T00:18:54;4.38;;;2.50;;
26391;SDS011;14572;43.120;1.178;2023-04-05T00:21:25;3.55;;;2.47;;
26391;SDS011;14572;43.120;1.178;2023-04-05T00:23:53;3.25;;;2.22;;
26391;SDS011;14572;43.120;1.178;2023-04-05T00:26:22;6.35;;;2.95;;
26391;SDS011;14572;43.120;1.178;2023-04-05T00:28:50;4.00;;;2.15;;
26391;SDS011;14572;43.120;1.178;2023-04-05T00:31:17;3.22;;;2.08;;
26391;SDS011;14572;43.120;1.178;2023-04-05T00:33:45;2.60;;;1.98;;
26391;SDS011;14572;43.120;1.178;2023-04-05T00:36:12;6.75;;;2.67;;
26391;SDS011;14572;43.120;1.178;2023-04-05T00:38:42;6.38;;;2.17;;
26391;SDS011;14572;43.120;1.178;2023-04-05T00:41:10;4.32;;;2.80;;
26391;SDS011;14572;43.120;1.178;2023-04-05T00:43:38;5.75;;;2.38;;
26391;SDS011;14572;43.120;1.178;2023-04-05T00:46:05;4.85;;;2.67;;
26391;SDS011;14572;43.120;1.178;2023-04-05T00:48:33;4.25;;;3.13;;
26391;SDS011;14572;43.120;1.178;2023-04-05T00:51:00;4.05;;;2.70;;
26391;SDS011;14572;43.120;1.178;2023-04-05T00:53:27;4.95;;;2.53;;
26391;SDS011;14572;43.120;1.178;2023-04-05T00:55:57;4.60;;;3.50;;
26391;SDS011;14572;43.120;1.178;2023-04-05T00:58:25;5.57;;;3.65;;
26391;SDS011;14572;43.120;1.178;2023-04-05T01:00:54;5.50;;;3.38;;
26391;SDS011;14572;43.120;1.178;2023-04-05T01:03:28;5.80;;;2.70;;
26391;SDS011;14572;43.120;1.178;2023-04-05T01:05:59;4.13;;;2.85;;
26391;SDS011;14572;43.120;1.178;2023-04-05T01:08:33;4.93;;;3.53;;
26391;SDS011;14572;43.120;1.178;2023-04-05T01:11:07;4.70;;;3.15;;
26391;SDS011;14572;43.120;1.178;2023-04-05T01:13:35;7.80;;;3.38;;
26391;SDS011;14572;43.120;1.178;2023-04-05T01:16:02;6.43;;;2.88;;
26391;SDS011;14572;43.120;1.178;2023-04-05T01:18:29;6.15;;;2.85;;
26391;SDS011;14572;43.120;1.178;2023-04-05T01:20:58;6.90;;;3.58;;
26391;SDS011;14572;43.120;1.178;2023-04-05T01:23:37;4.43;;;3.00;;
26391;SDS011;14572;43.120;1.178;2023-04-05T01:26:22;5.80;;;2.90;;
26391;SDS011;14572;43.120;1.178;2023-04-05T01:32:13;3.92;;;2.83;;
26391;SDS011;14572;43.120;1.178;2023-04-05T01:34:46;5.10;;;2.33;;
26391;SDS011;14572;43.120;1.178;2023-04-05T01:37:18;11.75;;;3.90;;
26391;SDS011;14572;43.120;1.178;2023-04-05T01:39:46;6.78;;;4.10;;
26391;SDS011;14572;43.120;1.178;2023-04-05T01:42:15;8.57;;;3.63;;
26391;SDS011;14572;43.120;1.178;2023-04-05T01:44:47;5.07;;;2.80;;
26391;SDS011;14572;43.120;1.178;2023-04-05T01:47:14;6.15;;;3.40;;
26391;SDS011;14572;43.120;1.178;2023-04-05T01:49:42;5.53;;;3.10;;
26391;SDS011;14572;43.120;1.178;2023-04-05T01:52:09;6.03;;;3.80;;
26391;SDS011;14572;43.120;1.178;2023-04-05T01:54:36;5.23;;;3.60;;
26391;SDS011;14572;43.120;1.178;2023-04-05T01:57:03;4.22;;;3.17;;
26391;SDS011;14572;43.120;1.178;2023-04-05T01:59:30;5.75;;;3.58;;
26391;SDS011;14572;43.120;1.178;2023-04-05T02:01:59;5.75;;;3.30;;
26391;SDS011;14572;43.120;1.178;2023-04-05T02:04:26;6.27;;;3.57;;
26391;SDS011;14572;43.120;1.178;2023-04-05T02:06:53;4.43;;;3.17;;
26391;SDS011;14572;43.120;1.178;2023-04-05T02:09:20;7.55;;;3.80;;
26391;SDS011;14572;43.120;1.178;2023-04-05T02:11:47;7.20;;;3.45;;
26391;SDS011;14572;43.120;1.178;2023-04-05T02:14:14;7.90;;;3.50;;
26391;SDS011;14572;43.120;1.178;2023-04-05T02:16:41;5.40;;;3.20;;
26391;SDS011;14572;43.120;1.178;2023-04-05T02:19:10;5.60;;;3.72;;
26391;SDS011;14572;43.120;1.178;2023-04-05T02:21:37;6.35;;;3.88;;
26391;SDS011;14572;43.120;1.178;2023-04-05T02:24:05;6.85;;;3.78;;
26391;SDS011;14572;43.120;1.178;2023-04-05T02:26:32;5.72;;;3.40;;
26391;SDS011;14572;43.120;1.178;2023-04-05T02:28:59;6.03;;;3.47;;
26391;SDS011;14572;43.120;1.178;2023-04-05T02:31:26;4.50;;;3.35;;
26391;SDS011;14572;43.120;1.178;2023-04-05T02:33:53;7.00;;;4.53;;
26391;SDS011;14572;43.120;1.178;2023-04-05T02:36:23;5.05;;;3.60;;
26391;SDS011;14572;43.120;1.178;2023-04-05T02:38:52;6.60;;;4.40;;
26391;SDS011;14572;43.120;1.178;2023-04-05T02:41:19;6.50;;;4.43;;
26391;SDS011;14572;43.120;1.178;2023-04-05T02:43:48;5.43;;;3.95;;
26391;SDS011;14572;43.120;1.178;2023-04-05T02:46:15;10.23;;;4.10;;
26391;SDS011;14572;43.120;1.178;2023-04-05T02:48:43;9.43;;;5.33;;
26391;SDS011;14572;43.120;1.178;2023-04-05T02:51:10;8.47;;;4.40;;
26391;SDS011;14572;43.120;1.178;2023-04-05T02:53:39;11.03;;;5.00;;
26391;SDS011;14572;43.120;1.178;2023-04-05T02:56:06;8.10;;;5.13;;
26391;SDS011;14572;43.120;1.178;2023-04-05T02:58:34;9.17;;;4.87;;
26391;SDS011;14572;43.120;1.178;2023-04-05T03:01:01;9.30;;;5.07;;
26391;SDS011;14572;43.120;1.178;2023-04-05T03:03:31;7.67;;;4.57;;
26391;SDS011;14572;43.120;1.178;2023-04-05T03:06:00;7.40;;;4.63;;
26391;SDS011;14572;43.120;1.178;2023-04-05T03:08:34;7.83;;;4.33;;
26391;SDS011;14572;43.120;1.178;2023-04-05T03:11:05;7.82;;;4.78;;
26391;SDS011;14572;43.120;1.178;2023-04-05T03:13:32;7.68;;;4.90;;
26391;SDS011;14572;43.120;1.178;2023-04-05T03:16:00;9.40;;;5.60;;
26391;SDS011;14572;43.120;1.178;2023-04-05T03:18:27;8.13;;;5.57;;
26391;SDS011;14572;43.120;1.178;2023-04-05T03:20:55;8.97;;;5.10;;
26391;SDS011;14572;43.120;1.178;2023-04-05T03:23:22;8.93;;;5.33;;
26391;SDS011;14572;43.120;1.178;2023-04-05T03:25:54;8.27;;;5.30;;
26391;SDS011;14572;43.120;1.178;2023-04-05T03:28:25;8.90;;;5.40;;
26391;SDS011;14572;43.120;1.178;2023-04-05T03:30:52;11.93;;;5.43;;
26391;SDS011;14572;43.120;1.178;2023-04-05T03:33:19;8.00;;;5.43;;
26391;SDS011;14572;43.120;1.178;2023-04-05T03:35:46;10.80;;;5.57;;
26391;SDS011;14572;43.120;1.178;2023-04-05T03:38:14;9.07;;;5.73;;
26391;SDS011;14572;43.120;1.178;2023-04-05T03:40:41;7.23;;;5.40;;
26391;SDS011;14572;43.120;1.178;2023-04-05T03:43:08;10.10;;;5.40;;
26391;SDS011;14572;43.120;1.178;2023-04-05T03:45:37;12.77;;;5.67;;
26391;SDS011;14572;43.120;1.178;2023-04-05T03:48:04;9.77;;;6.10;;
26391;SDS011;14572;43.120;1.178;2023-04-05T03:50:31;8.97;;;5.80;;
26391;SDS011;14572;43.120;1.178;2023-04-05T03:52:58;10.20;;;5.80;;
26391;SDS011;14572;43.120;1.178;2023-04-05T03:55:25;10.00;;;5.57;;
26391;SDS011;14572;43.120;1.178;2023-04-05T03:57:52;7.83;;;5.07;;
26391;SDS011;14572;43.120;1.178;2023-04-05T04:00:20;8.67;;;5.00;;
26391;SDS011;14572;43.120;1.178;2023-04-05T04:02:50;8.60;;;5.30;;
26391;SDS011;14572;43.120;1.178;2023-04-05T04:05:18;8.93;;;4.97;;
26391;SDS011;14572;43.120;1.178;2023-04-05T04:07:45;9.50;;;4.87;;
26391;SDS011;14572;43.120;1.178;2023-04-05T04:10:13;6.23;;;4.40;;
26391;SDS011;14572;43.120;1.178;2023-04-05T04:12:42;8.63;;;5.10;;
26391;SDS011;14572;43.120;1.178;2023-04-05T04:15:10;9.00;;;4.63;;
26391;SDS011;14572;43.120;1.178;2023-04-05T04:17:37;12.33;;;4.83;;
26391;SDS011;14572;43.120;1.178;2023-04-05T04:20:07;6.90;;;5.00;;
26391;SDS011;14572;43.120;1.178;2023-04-05T04:22:35;8.10;;;5.23;;
26391;SDS011;14572;43.120;1.178;2023-04-05T04:25:05;8.23;;;4.83;;
26391;SDS011;14572;43.120;1.178;2023-04-05T04:27:34;6.53;;;4.73;;
26391;SDS011;14572;43.120;1.178;2023-04-05T04:30:03;6.80;;;4.60;;
26391;SDS011;14572;43.120;1.178;2023-04-05T04:32:35;8.53;;;4.97;;
26391;SDS011;14572;43.120;1.178;2023-04-05T04:35:19;9.40;;;5.10;;
26391;SDS011;14572;43.120;1.178;2023-04-05T04:37:50;10.87;;;4.90;;
26391;SDS011;14572;43.120;1.178;2023-04-05T04:40:18;7.17;;;4.70;;
26391;SDS011;14572;43.120;1.178;2023-04-05T04:42:46;8.73;;;5.07;;
26391;SDS011;14572;43.120;1.178;2023-04-05T04:45:15;10.73;;;5.20;;
26391;SDS011;14572;43.120;1.178;2023-04-05T04:47:43;9.17;;;5.40;;
26391;SDS011;14572;43.120;1.178;2023-04-05T04:50:11;10.90;;;5.73;;
26391;SDS011;14572;43.120;1.178;2023-04-05T04:52:41;11.67;;;6.20;;
26391;SDS011;14572;43.120;1.178;2023-04-05T04:55:08;12.77;;;6.80;;
26391;SDS011;14572;43.120;1.178;2023-04-05T04:57:37;14.10;;;6.83;;
26391;SDS011;14572;43.120;1.178;2023-04-05T05:00:06;15.77;;;6.53;;
26391;SDS011;14572;43.120;1.178;2023-04-05T05:02:37;16.80;;;7.10;;
26391;SDS011;14572;43.120;1.178;2023-04-05T05:05:05;13.67;;;6.90;;
26391;SDS011;14572;43.120;1.178;2023-04-05T05:07:33;13.70;;;6.87;;
26391;SDS011;14572;43.120;1.178;2023-04-05T05:10:02;7.47;;;5.43;;
26391;SDS011;14572;43.120;1.178;2023-04-05T05:12:30;10.03;;;6.37;;
26391;SDS011;14572;43.120;1.178;2023-04-05T05:14:57;12.77;;;6.10;;
26391;SDS011;14572;43.120;1.178;2023-04-05T05:17:24;13.47;;;6.57;;
26391;SDS011;14572;43.120;1.178;2023-04-05T05:19:51;10.60;;;5.80;;
26391;SDS011;14572;43.120;1.178;2023-04-05T05:22:18;15.07;;;5.97;;
26391;SDS011;14572;43.120;1.178;2023-04-05T05:24:45;11.67;;;6.43;;
26391;SDS011;14572;43.120;1.178;2023-04-05T05:27:15;13.17;;;6.20;;
26391;SDS011;14572;43.120;1.178;2023-04-05T05:29:42;15.67;;;6.50;;
26391;SDS011;14572;43.120;1.178;2023-04-05T05:32:09;11.47;;;6.07;;
26391;SDS011;14572;43.120;1.178;2023-04-05T05:34:39;11.20;;;6.13;;
26391;SDS011;14572;43.120;1.178;2023-04-05T05:37:09;10.07;;;5.87;;
26391;SDS011;14572;43.120;1.178;2023-04-05T05:39:37;17.70;;;6.67;;
26391;SDS011;14572;43.120;1.178;2023-04-05T05:42:04;12.43;;;6.83;;
26391;SDS011;14572;43.120;1.178;2023-04-05T05:44:33;11.43;;;5.80;;
26391;SDS011;14572;43.120;1.178;2023-04-05T05:47:00;11.13;;;6.03;;
26391;SDS011;14572;43.120;1.178;2023-04-05T05:49:28;9.57;;;5.73;;
26391;SDS011;14572;43.120;1.178;2023-04-05T05:51:55;11.33;;;5.83;;
26391;SDS011;14572;43.120;1.178;2023-04-05T05:54:22;11.50;;;6.43;;
26391;SDS011;14572;43.120;1.178;2023-04-05T05:56:50;11.67;;;6.20;;
26391;SDS011;14572;43.120;1.178;2023-04-05T05:59:18;9.87;;;5.97;;
26391;SDS011;14572;43.120;1.178;2023-04-05T06:01:46;11.47;;;5.57;;
26391;SDS011;14572;43.120;1.178;2023-04-05T06:04:15;10.97;;;6.00;;
26391;SDS011;14572;43.120;1.178;2023-04-05T06:06:43;10.50;;;5.90;;
26391;SDS011;14572;43.120;1.178;2023-04-05T06:09:12;14.27;;;6.17;;
26391;SDS011;14572;43.120;1.178;2023-04-05T06:11:40;11.63;;;6.17;;
26391;SDS011;14572;43.120;1.178;2023-04-05T06:14:07;10.17;;;6.17;;
26391;SDS011;14572;43.120;1.178;2023-04-05T06:16:34;12.43;;;6.33;;
26391;SDS011;14572;43.120;1.178;2023-04-05T06:19:02;12.97;;;5.97;;
26391;SDS011;14572;43.120;1.178;2023-04-05T06:21:29;10.05;;;6.28;;
26391;SDS011;14572;43.120;1.178;2023-04-05T06:23:56;14.02;;;6.45;;
26391;SDS011;14572;43.120;1.178;2023-04-05T06:26:23;9.80;;;5.53;;
26391;SDS011;14572;43.120;1.178;2023-04-05T06:28:52;9.63;;;5.30;;
26391;SDS011;14572;43.120;1.178;2023-04-05T06:31:20;10.68;;;4.60;;
26391;SDS011;14572;43.120;1.178;2023-04-05T06:33:51;6.60;;;4.68;;
26391;SDS011;14572;43.120;1.178;2023-04-05T06:36:20;9.85;;;4.35;;
26391;SDS011;14572;43.120;1.178;2023-04-05T06:38:47;7.85;;;4.60;;
26391;SDS011;14572;43.120;1.178;2023-04-05T06:41:14;6.90;;;4.55;;
26391;SDS011;14572;43.120;1.178;2023-04-05T06:43:41;6.82;;;4.13;;
26391;SDS011;14572;43.120;1.178;2023-04-05T06:46:08;6.05;;;4.22;;
26391;SDS011;14572;43.120;1.178;2023-04-05T06:48:36;6.97;;;4.50;;
26391;SDS011;14572;43.120;1.178;2023-04-05T06:51:04;9.60;;;4.55;;
26391;SDS011;14572;43.120;1.178;2023-04-05T06:53:32;9.48;;;5.10;;
26391;SDS011;14572;43.120;1.178;2023-04-05T06:55:59;7.50;;;5.00;;
26391;SDS011;14572;43.120;1.178;2023-04-05T06:58:26;5.15;;;4.15;;
26391;SDS011;14572;43.120;1.178;2023-04-05T07:00:54;9.98;;;5.68;;
26391;SDS011;14572;43.120;1.178;2023-04-05T07:03:21;11.00;;;7.50;;
26391;SDS011;14572;43.120;1.178;2023-04-05T07:05:49;14.57;;;7.13;;
26391;SDS011;14572;43.120;1.178;2023-04-05T07:08:18;8.75;;;5.57;;
26391;SDS011;14572;43.120;1.178;2023-04-05T07:10:47;5.28;;;3.47;;
26391;SDS011;14572;43.120;1.178;2023-04-05T07:13:14;4.25;;;2.90;;
26391;SDS011;14572;43.120;1.178;2023-04-05T07:15:42;5.07;;;2.97;;
26391;SDS011;14572;43.120;1.178;2023-04-05T07:18:09;4.28;;;2.80;;
26391;SDS011;14572;43.120;1.178;2023-04-05T07:20:37;3.47;;;2.50;;
26391;SDS011;14572;43.120;1.178;2023-04-05T07:23:04;3.58;;;2.50;;
26391;SDS011;14572;43.120;1.178;2023-04-05T07:25:31;4.68;;;3.42;;
26391;SDS011;14572;43.120;1.178;2023-04-05T07:28:00;4.95;;;3.80;;
26391;SDS011;14572;43.120;1.178;2023-04-05T07:30:27;5.65;;;3.60;;
26391;SDS011;14572;43.120;1.178;2023-04-05T07:32:55;6.05;;;2.92;;
26391;SDS011;14572;43.120;1.178;2023-04-05T07:35:23;5.30;;;3.50;;
26391;SDS011;14572;43.120;1.178;2023-04-05T07:37:50;4.05;;;3.30;;
26391;SDS011;14572;43.120;1.178;2023-04-05T07:40:17;3.97;;;2.92;;
26391;SDS011;14572;43.120;1.178;2023-04-05T07:42:45;3.35;;;2.78;;
26391;SDS011;14572;43.120;1.178;2023-04-05T07:45:13;5.65;;;2.92;;
26391;SDS011;14572;43.120;1.178;2023-04-05T07:47:40;5.82;;;3.20;;
26391;SDS011;14572;43.120;1.178;2023-04-05T07:50:07;4.00;;;2.65;;
26391;SDS011;14572;43.120;1.178;2023-04-05T07:52:39;4.80;;;2.88;;
26391;SDS011;14572;43.120;1.178;2023-04-05T07:55:06;3.58;;;2.83;;
26391;SDS011;14572;43.120;1.178;2023-04-05T07:57:51;6.68;;;3.75;;
26391;SDS011;14572;43.120;1.178;2023-04-05T08:00:21;9.57;;;6.45;;
26391;SDS011;14572;43.120;1.178;2023-04-05T08:02:48;4.05;;;2.90;;
26391;SDS011;14572;43.120;1.178;2023-04-05T08:05:15;5.40;;;3.20;;
26391;SDS011;14572;43.120;1.178;2023-04-05T08:07:42;8.05;;;3.30;;
26391;SDS011;14572;43.120;1.178;2023-04-05T08:10:09;4.80;;;3.63;;
26391;SDS011;14572;43.120;1.178;2023-04-05T08:12:36;6.43;;;3.35;;
26391;SDS011;14572;43.120;1.178;2023-04-05T08:15:04;3.40;;;3.08;;
26391;SDS011;14572;43.120;1.178;2023-04-05T08:17:33;6.07;;;3.22;;
26391;SDS011;14572;43.120;1.178;2023-04-05T08:20:00;5.55;;;3.30;;
26391;SDS011;14572;43.120;1.178;2023-04-05T08:22:28;3.63;;;3.20;;
26391;SDS011;14572;43.120;1.178;2023-04-05T08:24:55;5.88;;;3.80;;
26391;SDS011;14572;43.120;1.178;2023-04-05T08:27:22;5.95;;;3.38;;
26391;SDS011;14572;43.120;1.178;2023-04-05T08:29:49;5.05;;;3.33;;
26391;SDS011;14572;43.120;1.178;2023-04-05T08:32:16;4.30;;;2.75;;
26391;SDS011;14572;43.120;1.178;2023-04-05T08:34:44;6.50;;;3.00;;
26391;SDS011;14572;43.120;1.178;2023-04-05T08:37:11;5.05;;;3.22;;
26391;SDS011;14572;43.120;1.178;2023-04-05T08:39:38;4.45;;;2.90;;
26391;SDS011;14572;43.120;1.178;2023-04-05T08:42:07;3.05;;;2.60;;
26391;SDS011;14572;43.120;1.178;2023-04-05T08:44:37;4.82;;;2.80;;
26391;SDS011;14572;43.120;1.178;2023-04-05T08:47:05;5.28;;;2.95;;
26391;SDS011;14572;43.120;1.178;2023-04-05T08:49:34;7.30;;;3.28;;
26391;SDS011;14572;43.120;1.178;2023-04-05T08:52:03;10.65;;;3.95;;
26391;SDS011;14572;43.120;1.178;2023-04-05T08:54:30;5.00;;;3.78;;
26391;SDS011;14572;43.120;1.178;2023-04-05T08:56:57;6.88;;;3.67;;
26391;SDS011;14572;43.120;1.178;2023-04-05T08:59:25;5.30;;;3.20;;
26391;SDS011;14572;43.120;1.178;2023-04-05T09:01:53;5.35;;;3.28;;
26391;SDS011;14572;43.120;1.178;2023-04-05T09:04:21;3.72;;;2.42;;
26391;SDS011;14572;43.120;1.178;2023-04-05T09:06:49;4.03;;;2.63;;
26391;SDS011;14572;43.120;1.178;2023-04-05T09:09:19;4.07;;;3.08;;
26391;SDS011;14572;43.120;1.178;2023-04-05T09:11:46;5.00;;;2.63;;
26391;SDS011;14572;43.120;1.178;2023-04-05T09:14:14;6.45;;;2.97;;
26391;SDS011;14572;43.120;1.178;2023-04-05T09:16:42;3.20;;;2.50;;
26391;SDS011;14572;43.120;1.178;2023-04-05T09:19:09;5.35;;;2.88;;
26391;SDS011;14572;43.120;1.178;2023-04-05T09:24:33;4.22;;;2.60;;
26391;SDS011;14572;43.120;1.178;2023-04-05T09:27:04;5.53;;;3.90;;
26391;SDS011;14572;43.120;1.178;2023-04-05T09:29:32;6.93;;;2.47;;
26391;SDS011;14572;43.120;1.178;2023-04-05T09:32:00;5.30;;;4.07;;
26391;SDS011;14572;43.120;1.178;2023-04-05T09:34:28;3.03;;;2.35;;
26391;SDS011;14572;43.120;1.178;2023-04-05T09:36:57;2.30;;;2.10;;
26391;SDS011;14572;43.120;1.178;2023-04-05T09:39:28;3.65;;;1.73;;
26391;SDS011;14572;43.120;1.178;2023-04-05T09:44:49;2.95;;;1.80;;
26391;SDS011;14572;43.120;1.178;2023-04-05T09:47:17;4.38;;;2.13;;
26391;SDS011;14572;43.120;1.178;2023-04-05T09:49:45;2.28;;;1.67;;
26391;SDS011;14572;43.120;1.178;2023-04-05T09:52:19;3.40;;;1.70;;
26391;SDS011;14572;43.120;1.178;2023-04-05T09:54:47;3.53;;;2.00;;
26391;SDS011;14572;43.120;1.178;2023-04-05T09:57:16;3.28;;;1.90;;
26391;SDS011;14572;43.120;1.178;2023-04-05T09:59:44;5.38;;;1.73;;
26391;SDS011;14572;43.120;1.178;2023-04-05T10:02:11;8.07;;;2.00;;
26391;SDS011;14572;43.120;1.178;2023-04-05T10:04:39;3.35;;;2.00;;
26391;SDS011;14572;43.120;1.178;2023-04-05T10:07:07;3.05;;;1.80;;
26391;SDS011;14572;43.120;1.178;2023-04-05T10:09:37;6.03;;;2.22;;
26391;SDS011;14572;43.120;1.178;2023-04-05T10:12:04;4.95;;;1.70;;
26391;SDS011;14572;43.120;1.178;2023-04-05T10:14:34;2.65;;;1.60;;
26391;SDS011;14572;43.120;1.178;2023-04-05T10:17:07;6.60;;;1.67;;
26391;SDS011;14572;43.120;1.178;2023-04-05T10:19:40;3.05;;;1.60;;
26391;SDS011;14572;43.120;1.178;2023-04-05T10:22:16;3.10;;;1.65;;
26391;SDS011;14572;43.120;1.178;2023-04-05T10:24:48;2.45;;;1.58;;
26391;SDS011;14572;43.120;1.178;2023-04-05T10:27:20;3.58;;;1.73;;
26391;SDS011;14572;43.120;1.178;2023-04-05T10:29:53;3.05;;;1.48;;
26391;SDS011;14572;43.120;1.178;2023-04-05T10:32:29;1.92;;;1.40;;
26391;SDS011;14572;43.120;1.178;2023-04-05T10:35:03;2.83;;;1.40;;
26391;SDS011;14572;43.120;1.178;2023-04-05T10:37:37;3.50;;;1.30;;
26391;SDS011;14572;43.120;1.178;2023-04-05T10:40:09;3.33;;;1.60;;
26391;SDS011;14572;43.120;1.178;2023-04-05T10:42:39;3.92;;;1.38;;
26391;SDS011;14572;43.120;1.178;2023-04-05T10:45:11;3.67;;;1.60;;
26391;SDS011;14572;43.120;1.178;2023-04-05T10:47:41;8.88;;;1.52;;
26391;SDS011;14572;43.120;1.178;2023-04-05T10:50:15;4.68;;;1.40;;
26391;SDS011;14572;43.120;1.178;2023-04-05T10:52:46;5.30;;;1.40;;
26391;SDS011;14572;43.120;1.178;2023-04-05T10:55:15;5.68;;;1.25;;
26391;SDS011;14572;43.120;1.178;2023-04-05T10:57:43;1.67;;;1.05;;
26391;SDS011;14572;43.120;1.178;2023-04-05T11:00:13;2.75;;;1.40;;
26391;SDS011;14572;43.120;1.178;2023-04-05T11:02:41;1.98;;;1.20;;
26391;SDS011;14572;43.120;1.178;2023-04-05T11:08:01;2.97;;;1.10;;
26391;SDS011;14572;43.120;1.178;2023-04-05T11:10:29;2.03;;;1.50;;
26391;SDS011;14572;43.120;1.178;2023-04-05T11:13:04;3.00;;;1.20;;
26391;SDS011;14572;43.120;1.178;2023-04-05T11:15:34;1.95;;;1.20;;
26391;SDS011;14572;43.120;1.178;2023-04-05T11:18:05;2.75;;;1.10;;
26391;SDS011;14572;43.120;1.178;2023-04-05T11:20:40;4.07;;;1.55;;
26391;SDS011;14572;43.120;1.178;2023-04-05T11:23:12;2.20;;;1.00;;
26391;SDS011;14572;43.120;1.178;2023-04-05T11:25:44;5.43;;;1.33;;
26391;SDS011;14572;43.120;1.178;2023-04-05T11:28:22;4.00;;;1.27;;
26391;SDS011;14572;43.120;1.178;2023-04-05T11:30:52;2.20;;;1.20;;
26391;SDS011;14572;43.120;1.178;2023-04-05T11:33:36;3.97;;;1.13;;
26391;SDS011;14572;43.120;1.178;2023-04-05T11:36:05;3.60;;;1.30;;
26391;SDS011;14572;43.120;1.178;2023-04-05T11:38:34;3.88;;;1.20;;
26391;SDS011;14572;43.120;1.178;2023-04-05T11:41:04;2.95;;;1.00;;
26391;SDS011;14572;43.120;1.178;2023-04-05T11:43:36;3.20;;;1.05;;
26391;SDS011;14572;43.120;1.178;2023-04-05T11:46:05;2.80;;;0.95;;
26391;SDS011;14572;43.120;1.178;2023-04-05T11:48:32;3.60;;;1.00;;
26391;SDS011;14572;43.120;1.178;2023-04-05T11:51:00;3.10;;;1.10;;
26391;SDS011;14572;43.120;1.178;2023-04-05T11:53:33;2.60;;;1.20;;
26391;SDS011;14572;43.120;1.178;2023-04-05T11:56:05;3.38;;;1.27;;
26391;SDS011;14572;43.120;1.178;2023-04-05T11:58:33;1.48;;;0.85;;
26391;SDS011;14572;43.120;1.178;2023-04-05T12:01:00;2.00;;;0.98;;
26391;SDS011;14572;43.120;1.178;2023-04-05T12:03:30;4.30;;;0.98;;
26391;SDS011;14572;43.120;1.178;2023-04-05T12:05:57;1.17;;;0.82;;
26391;SDS011;14572;43.120;1.178;2023-04-05T12:08:37;1.75;;;1.60;;
26391;SDS011;14572;43.120;1.178;2023-04-05T12:11:05;2.92;;;1.00;;
26391;SDS011;14572;43.120;1.178;2023-04-05T12:13:33;2.67;;;0.93;;
26391;SDS011;14572;43.120;1.178;2023-04-05T12:16:01;2.63;;;1.10;;
26391;SDS011;14572;43.120;1.178;2023-04-05T12:18:31;2.50;;;1.00;;
26391;SDS011;14572;43.120;1.178;2023-04-05T12:20:59;3.85;;;1.02;;
26391;SDS011;14572;43.120;1.178;2023-04-05T12:23:27;2.92;;;0.93;;
26391;SDS011;14572;43.120;1.178;2023-04-05T12:25:54;1.83;;;0.95;;
26391;SDS011;14572;43.120;1.178;2023-04-05T12:28:22;1.70;;;0.82;;
26391;SDS011;14572;43.120;1.178;2023-04-05T12:30:49;2.05;;;0.98;;
26391;SDS011;14572;43.120;1.178;2023-04-05T13:43:09;1.20;;;0.52;;
26391;SDS011;14572;43.120;1.178;2023-04-05T13:45:36;2.10;;;1.30;;
26391;SDS011;14572;43.120;1.178;2023-04-05T13:48:04;1.20;;;0.63;;
26391;SDS011;14572;43.120;1.178;2023-04-05T13:50:31;1.50;;;0.80;;
26391;SDS011;14572;43.120;1.178;2023-04-05T13:52:58;1.38;;;0.75;;
26391;SDS011;14572;43.120;1.178;2023-04-05T13:55:25;1.65;;;0.70;;
26391;SDS011;14572;43.120;1.178;2023-04-05T13:57:52;1.42;;;0.65;;
26391;SDS011;14572;43.120;1.178;2023-04-05T14:00:20;1.40;;;0.70;;
26391;SDS011;14572;43.120;1.178;2023-04-05T14:02:48;0.88;;;0.60;;
26391;SDS011;14572;43.120;1.178;2023-04-05T14:05:17;0.93;;;0.80;;
26391;SDS011;14572;43.120;1.178;2023-04-05T14:07:44;3.72;;;0.80;;
26391;SDS011;14572;43.120;1.178;2023-04-05T14:10:11;4.05;;;0.90;;
26391;SDS011;14572;43.120;1.178;2023-04-05T14:12:38;1.38;;;0.50;;
26391;SDS011;14572;43.120;1.178;2023-04-05T14:15:05;1.95;;;0.73;;
26391;SDS011;14572;43.120;1.178;2023-04-05T14:17:35;1.40;;;0.60;;
26391;SDS011;14572;43.120;1.178;2023-04-05T14:20:02;3.05;;;0.70;;
26391;SDS011;14572;43.120;1.178;2023-04-05T14:22:29;2.95;;;0.75;;
26391;SDS011;14572;43.120;1.178;2023-04-05T14:24:56;1.17;;;0.50;;
26391;SDS011;14572;43.120;1.178;2023-04-05T14:27:23;0.85;;;0.60;;
26391;SDS011;14572;43.120;1.178;2023-04-05T14:29:52;0.70;;;0.60;;
26391;SDS011;14572;43.120;1.178;2023-04-05T14:32:21;1.65;;;0.80;;
26391;SDS011;14572;43.120;1.178;2023-04-05T14:34:50;3.97;;;0.55;;
26391;SDS011;14572;43.120;1.178;2023-04-05T14:37:18;0.68;;;0.50;;
26391;SDS011;14572;43.120;1.178;2023-04-05T14:39:45;2.05;;;0.73;;
26391;SDS011;14572;43.120;1.178;2023-04-05T14:42:12;4.18;;;0.90;;
26391;SDS011;14572;43.120;1.178;2023-04-05T14:44:39;1.10;;;0.57;;
26391;SDS011;14572;43.120;1.178;2023-04-05T14:47:06;1.38;;;0.63;;
26391;SDS011;14572;43.120;1.178;2023-04-05T14:49:33;1.92;;;0.60;;
26391;SDS011;14572;43.120;1.178;2023-04-05T14:52:02;1.85;;;0.55;;
26391;SDS011;14572;43.120;1.178;2023-04-05T14:54:30;2.35;;;0.77;;
26391;SDS011;14572;43.120;1.178;2023-04-05T14:56:57;1.65;;;0.80;;
26391;SDS011;14572;43.120;1.178;2023-04-05T14:59:24;2.13;;;1.08;;
26391;SDS011;14572;43.120;1.178;2023-04-05T15:01:51;1.60;;;0.63;;
26391;SDS011;14572;43.120;1.178;2023-04-05T15:04:19;1.02;;;0.60;;
26391;SDS011;14572;43.120;1.178;2023-04-05T15:06:46;1.50;;;0.80;;
26391;SDS011;14572;43.120;1.178;2023-04-05T15:09:14;0.55;;;0.55;;
26391;SDS011;14572;43.120;1.178;2023-04-05T15:11:42;1.58;;;0.93;;
26391;SDS011;14572;43.120;1.178;2023-04-05T15:14:09;1.45;;;0.50;;
26391;SDS011;14572;43.120;1.178;2023-04-05T15:16:36;1.02;;;0.55;;
26391;SDS011;14572;43.120;1.178;2023-04-05T15:19:03;2.03;;;0.90;;
26391;SDS011;14572;43.120;1.178;2023-04-05T15:21:31;1.52;;;0.95;;
26391;SDS011;14572;43.120;1.178;2023-04-05T15:23:59;1.55;;;0.47;;
26391;SDS011;14572;43.120;1.178;2023-04-05T15:26:28;1.02;;;0.55;;
26391;SDS011;14572;43.120;1.178;2023-04-05T15:28:55;0.95;;;0.52;;
26391;SDS011;14572;43.120;1.178;2023-04-05T15:31:23;1.50;;;0.68;;
26391;SDS011;14572;43.120;1.178;2023-04-05T15:33:50;1.90;;;0.85;;
26391;SDS011;14572;43.120;1.178;2023-04-05T15:36:17;1.45;;;0.82;;
26391;SDS011;14572;43.120;1.178;2023-04-05T15:38:44;1.23;;;0.80;;
26391;SDS011;14572;43.120;1.178;2023-04-05T15:41:12;0.88;;;0.65;;
26391;SDS011;14572;43.120;1.178;2023-04-05T15:43:40;0.60;;;0.45;;
26391;SDS011;14572;43.120;1.178;2023-04-05T15:46:07;1.80;;;0.75;;
26391;SDS011;14572;43.120;1.178;2023-04-05T15:48:35;4.13;;;1.05;;
26391;SDS011;14572;43.120;1.178;2023-04-05T15:51:02;1.73;;;0.80;;
26391;SDS011;14572;43.120;1.178;2023-04-05T15:53:29;1.00;;;0.90;;
26391;SDS011;14572;43.120;1.178;2023-04-05T15:55:56;0.98;;;0.70;;
26391;SDS011;14572;43.120;1.178;2023-04-05T15:58:24;1.77;;;0.80;;
26391;SDS011;14572;43.120;1.178;2023-04-05T16:00:52;5.30;;;0.90;;
26391;SDS011;14572;43.120;1.178;2023-04-05T16:03:20;2.38;;;1.13;;
26391;SDS011;14572;43.120;1.178;2023-04-05T16:05:47;1.00;;;0.80;;
26391;SDS011;14572;43.120;1.178;2023-04-05T16:08:14;2.83;;;0.75;;
26391;SDS011;14572;43.120;1.178;2023-04-05T16:10:42;0.93;;;0.85;;
26391;SDS011;14572;43.120;1.178;2023-04-05T16:13:09;1.00;;;0.80;;
26391;SDS011;14572;43.120;1.178;2023-04-05T16:15:36;2.33;;;0.70;;